Time,TemperatureF,DewpointF,PressureIn,WindDirection,WindDirectionDegrees,WindSpeedMPH,WindSpeedGustMPH,Humidity,HourlyPrecipIn,Conditions,Clouds,dailyrainin,SolarRadiationWatts/m^2,SoftwareType,DateUTC
2013-07-14 00:00:00,57.0,43.0,-100.00,NE,38,5.0,7.0,58,-99.99,,,0.00,0.000000,,2013-07-14 07:00:00,
2013-07-14 00:43:00,57.0,43.0,-100.00,NE,38,5.0,7.0,58,-99.99,,,0.00,0.000000,,2013-07-14 07:43:00,
2013-07-14 00:53:00,57.0,43.0,-100.00,NE,38,5.0,7.0,58,-99.99,,,0.00,0.000000,,2013-07-14 07:53:00,
2013-07-14 01:00:00,55.0,44.0,-100.00,NE,39,5.0,7.0,65,-99.99,,,0.00,0.000000,,2013-07-14 08:00:00,
2013-07-14 01:42:00,55.0,44.0,-100.00,NE,39,5.0,7.0,65,-99.99,,,0.00,0.000000,,2013-07-14 08:42:00,
2013-07-14 01:53:00,55.0,44.0,-100.00,NE,39,5.0,7.0,65,-99.99,,,0.00,0.000000,,2013-07-14 08:53:00,
2013-07-14 02:00:00,55.0,45.0,-100.00,NE,35,5.0,8.0,67,-99.99,,,0.00,0.000000,,2013-07-14 09:00:00,
2013-07-14 02:42:00,55.0,45.0,-100.00,NE,35,5.0,8.0,67,-99.99,,,0.00,0.000000,,2013-07-14 09:42:00,
2013-07-14 02:53:00,55.0,45.0,-100.00,NE,35,5.0,8.0,67,-99.99,,,0.00,0.000000,,2013-07-14 09:53:00,
2013-07-14 03:00:00,54.0,44.0,-100.00,NNE,26,4.0,7.0,69,-99.99,,,0.00,0.000000,,2013-07-14 10:00:00,
2013-07-14 03:42:00,54.0,44.0,-100.00,NNE,26,4.0,7.0,69,-99.99,,,0.00,0.000000,,2013-07-14 10:42:00,
2013-07-14 03:53:00,54.0,44.0,-100.00,NNE,26,4.0,7.0,69,-99.99,,,0.00,0.000000,,2013-07-14 10:53:00,
2013-07-14 04:00:00,52.0,43.0,-100.00,NNE,33,5.0,7.0,70,-99.99,,,0.00,0.000000,,2013-07-14 11:00:00,
2013-07-14 04:43:00,52.0,43.0,-100.00,NNE,33,5.0,7.0,70,-99.99,,,0.00,0.000000,,2013-07-14 11:43:00,
2013-07-14 04:53:00,52.0,43.0,-100.00,NNE,33,5.0,7.0,70,-99.99,,,0.00,0.000000,,2013-07-14 11:53:00,
2013-07-14 05:00:00,52.0,44.0,-100.00,NE,40,4.0,6.0,73,-99.99,,,0.00,1.630000,,2013-07-14 12:00:00,
2013-07-14 05:43:00,52.0,44.0,-100.00,NE,40,4.0,6.0,73,-99.99,,,0.00,1.630000,,2013-07-14 12:43:00,
2013-07-14 05:53:00,52.0,44.0,-100.00,NE,40,4.0,6.0,73,-99.99,,,0.00,1.630000,,2013-07-14 12:53:00,
2013-07-14 06:00:00,54.0,45.0,-100.00,North,4,3.0,6.0,71,-99.99,,,0.00,49.279999,,2013-07-14 13:00:00,
2013-07-14 06:42:00,54.0,45.0,-100.00,North,4,3.0,6.0,71,-99.99,,,0.00,49.279999,,2013-07-14 13:42:00,
2013-07-14 06:53:00,54.0,45.0,-100.00,North,4,3.0,6.0,71,-99.99,,,0.00,49.279999,,2013-07-14 13:53:00,
2013-07-14 07:00:00,55.0,47.0,-100.00,NE,35,4.0,6.0,73,-99.99,,,0.00,245.919998,,2013-07-14 14:00:00,
2013-07-14 07:43:00,55.0,47.0,-100.00,NE,35,4.0,6.0,73,-99.99,,,0.00,245.919998,,2013-07-14 14:43:00,
2013-07-14 07:53:00,55.0,47.0,-100.00,NE,35,4.0,6.0,73,-99.99,,,0.00,245.919998,,2013-07-14 14:53:00,
2013-07-14 08:00:00,61.0,47.0,-100.00,ENE,62,2.0,4.0,61,-99.99,,,0.00,454.420013,,2013-07-14 15:00:00,
2013-07-14 08:42:00,61.0,47.0,-100.00,ENE,62,2.0,4.0,61,-99.99,,,0.00,454.420013,,2013-07-14 15:42:00,
2013-07-14 08:53:00,61.0,47.0,-100.00,ENE,62,2.0,4.0,61,-99.99,,,0.00,454.420013,,2013-07-14 15:53:00,
2013-07-14 09:00:00,66.0,46.0,-100.00,SSE,156,2.0,6.0,48,-99.99,,,0.00,616.200012,,2013-07-14 16:00:00,
2013-07-14 09:43:00,66.0,46.0,-100.00,SSE,156,2.0,6.0,48,-99.99,,,0.00,616.200012,,2013-07-14 16:43:00,
2013-07-14 09:53:00,66.0,46.0,-100.00,SSE,156,2.0,6.0,48,-99.99,,,0.00,616.200012,,2013-07-14 16:53:00,
2013-07-14 10:00:00,69.0,47.0,-100.00,South,172,2.0,4.0,44,-99.99,,,0.00,770.419983,,2013-07-14 17:00:00,
2013-07-14 10:43:00,69.0,47.0,-100.00,South,172,2.0,4.0,44,-99.99,,,0.00,770.419983,,2013-07-14 17:43:00,
2013-07-14 10:53:00,69.0,47.0,-100.00,South,172,2.0,4.0,44,-99.99,,,0.00,770.419983,,2013-07-14 17:53:00,
2013-07-14 11:00:00,73.0,49.0,-100.00,WSW,237,3.0,5.0,43,-99.99,,,0.00,894.890015,,2013-07-14 18:00:00,
2013-07-14 11:42:00,73.0,49.0,-100.00,WSW,237,3.0,5.0,43,-99.99,,,0.00,894.890015,,2013-07-14 18:42:00,
2013-07-14 11:52:00,73.0,49.0,-100.00,WSW,237,3.0,5.0,43,-99.99,,,0.00,894.890015,,2013-07-14 18:52:00,
2013-07-14 12:00:00,76.0,49.0,-100.00,WSW,245,4.0,6.0,38,-99.99,,,0.00,973.919983,,2013-07-14 19:00:00,
2013-07-14 12:43:00,76.0,49.0,-100.00,WSW,245,4.0,6.0,38,-99.99,,,0.00,973.919983,,2013-07-14 19:43:00,
2013-07-14 12:53:00,76.0,49.0,-100.00,WSW,245,4.0,6.0,38,-99.99,,,0.00,973.919983,,2013-07-14 19:53:00,
2013-07-14 13:00:00,83.0,41.0,-100.00,SW,229,2.0,3.0,22,-99.99,,,0.00,997.169983,,2013-07-14 20:00:00,
2013-07-14 13:43:00,83.0,41.0,-100.00,SW,229,2.0,3.0,22,-99.99,,,0.00,997.169983,,2013-07-14 20:43:00,
2013-07-14 13:53:00,83.0,41.0,-100.00,SW,229,2.0,3.0,22,-99.99,,,0.00,997.169983,,2013-07-14 20:53:00,
2013-07-14 14:00:00,84.0,44.0,-100.00,SE,144,3.0,5.0,24,-99.99,,,0.00,965.789978,,2013-07-14 21:00:00,
2013-07-14 14:43:00,84.0,44.0,-100.00,SE,144,3.0,5.0,24,-99.99,,,0.00,965.789978,,2013-07-14 21:43:00,
2013-07-14 14:52:00,84.0,44.0,-100.00,SE,144,3.0,5.0,24,-99.99,,,0.00,965.789978,,2013-07-14 21:52:00,
2013-07-14 15:00:00,86.0,38.0,-100.00,WSW,241,4.0,9.0,18,-99.99,,,0.00,890.250000,,2013-07-14 22:00:00,
2013-07-14 15:42:00,86.0,38.0,-100.00,WSW,241,4.0,9.0,18,-99.99,,,0.00,890.250000,,2013-07-14 22:42:00,
2013-07-14 15:53:00,86.0,38.0,-100.00,WSW,241,4.0,9.0,18,-99.99,,,0.00,890.250000,,2013-07-14 22:53:00,
2013-07-14 16:00:00,88.0,40.0,-100.00,South,180,3.0,5.0,18,-99.99,,,0.00,766.349976,,2013-07-14 23:00:00,
2013-07-14 16:42:00,88.0,40.0,-100.00,South,180,3.0,5.0,18,-99.99,,,0.00,766.349976,,2013-07-14 23:42:00,
2013-07-14 16:53:00,88.0,40.0,-100.00,South,180,3.0,5.0,18,-99.99,,,0.00,766.349976,,2013-07-14 23:53:00,
2013-07-14 18:00:00,87.0,40.0,-100.00,SSW,199,2.0,5.0,19,-99.99,,,0.00,418.739990,,2013-07-15 01:00:00,
2013-07-14 18:43:00,87.0,40.0,-100.00,SSW,199,2.0,5.0,19,-99.99,,,0.00,418.739990,,2013-07-15 01:43:00,
2013-07-14 18:53:00,87.0,40.0,-100.00,SSW,199,2.0,5.0,19,-99.99,,,0.00,418.739990,,2013-07-15 01:53:00,
2013-07-14 19:00:00,87.0,36.0,-100.00,North,353,3.0,7.0,16,-99.99,,,0.00,232.440002,,2013-07-15 02:00:00,
2013-07-14 19:42:00,87.0,36.0,-100.00,North,353,3.0,7.0,16,-99.99,,,0.00,232.440002,,2013-07-15 02:42:00,
2013-07-14 19:53:00,87.0,36.0,-100.00,North,353,3.0,7.0,16,-99.99,,,0.00,232.440002,,2013-07-15 02:53:00,
2013-07-14 20:00:00,76.0,46.0,-100.00,North,10,1.0,3.0,34,-99.99,,,0.00,22.200001,,2013-07-15 03:00:00,
2013-07-14 20:42:00,76.0,46.0,-100.00,North,10,1.0,3.0,34,-99.99,,,0.00,22.200001,,2013-07-15 03:42:00,
2013-07-14 20:53:00,76.0,46.0,-100.00,North,10,1.0,3.0,34,-99.99,,,0.00,22.200001,,2013-07-15 03:53:00,
2013-07-14 21:00:00,70.0,44.0,-100.00,NNE,18,3.0,5.0,37,-99.99,,,0.00,1.050000,,2013-07-15 04:00:00,
2013-07-14 21:42:00,70.0,44.0,-100.00,NNE,18,3.0,5.0,37,-99.99,,,0.00,1.050000,,2013-07-15 04:42:00,
2013-07-14 21:53:00,70.0,44.0,-100.00,NNE,18,3.0,5.0,37,-99.99,,,0.00,1.050000,,2013-07-15 04:53:00,
2013-07-14 22:00:00,68.0,44.0,-100.00,NNE,19,3.0,5.0,41,-99.99,,,0.00,0.000000,,2013-07-15 05:00:00,
2013-07-14 22:43:00,68.0,44.0,-100.00,NNE,19,3.0,5.0,41,-99.99,,,0.00,0.000000,,2013-07-15 05:43:00,
2013-07-14 22:53:00,68.0,44.0,-100.00,NNE,19,3.0,5.0,41,-99.99,,,0.00,0.000000,,2013-07-15 05:53:00,
2013-07-14 23:00:00,63.0,44.0,-100.00,NNE,29,4.0,7.0,48,-99.99,,,0.00,0.000000,,2013-07-15 06:00:00,
2013-07-14 23:42:00,63.0,44.0,-100.00,NNE,29,4.0,7.0,48,-99.99,,,0.00,0.000000,,2013-07-15 06:42:00,
2013-07-14 23:53:00,63.0,44.0,-100.00,NNE,29,4.0,7.0,48,-99.99,,,0.00,0.000000,,2013-07-15 06:53:00,